sensor_id;sensor_type;location;lat;lon;timestamp;temperature;humidity
74368;DHT22;64991;41.090;-8.118;2023-01-13T00:01:58;15.60;79.60
74368;DHT22;64991;41.090;-8.118;2023-01-13T00:07:03;15.60;79.60
74368;DHT22;64991;41.090;-8.118;2023-01-13T00:12:06;15.60;79.50
74368;DHT22;64991;41.090;-8.118;2023-01-13T00:17:10;15.70;79.40
74368;DHT22;64991;41.090;-8.118;2023-01-13T00:22:14;15.60;79.50
74368;DHT22;64991;41.090;-8.118;2023-01-13T00:27:18;15.70;79.50
74368;DHT22;64991;41.090;-8.118;2023-01-13T00:32:24;15.60;79.70
74368;DHT22;64991;41.090;-8.118;2023-01-13T00:37:29;15.60;79.70
74368;DHT22;64991;41.090;-8.118;2023-01-13T00:42:32;15.60;79.70
74368;DHT22;64991;41.090;-8.118;2023-01-13T00:47:53;15.60;79.70
74368;DHT22;64991;41.090;-8.118;2023-01-13T00:52:59;15.60;79.60
74368;DHT22;64991;41.090;-8.118;2023-01-13T00:58:02;15.60;79.70
74368;DHT22;64991;41.090;-8.118;2023-01-13T01:03:06;15.60;79.80
74368;DHT22;64991;41.090;-8.118;2023-01-13T01:08:14;15.60;79.60
74368;DHT22;64991;41.090;-8.118;2023-01-13T01:13:17;15.40;79.80
74368;DHT22;64991;41.090;-8.118;2023-01-13T01:18:21;15.50;80.00
74368;DHT22;64991;41.090;-8.118;2023-01-13T01:23:26;15.50;80.10
74368;DHT22;64991;41.090;-8.118;2023-01-13T01:28:30;15.50;80.00
74368;DHT22;64991;41.090;-8.118;2023-01-13T01:33:33;15.50;80.20
74368;DHT22;64991;41.090;-8.118;2023-01-13T01:38:38;15.50;80.10
74368;DHT22;64991;41.090;-8.118;2023-01-13T01:43:45;15.40;80.80
74368;DHT22;64991;41.090;-8.118;2023-01-13T01:49:15;15.40;80.50
74368;DHT22;64991;41.090;-8.118;2023-01-13T01:54:23;15.50;80.10
74368;DHT22;64991;41.090;-8.118;2023-01-13T01:59:28;15.50;80.00
74368;DHT22;64991;41.090;-8.118;2023-01-13T02:04:32;15.50;79.90
74368;DHT22;64991;41.090;-8.118;2023-01-13T02:09:38;15.50;79.90
74368;DHT22;64991;41.090;-8.118;2023-01-13T02:14:42;15.50;79.70
74368;DHT22;64991;41.090;-8.118;2023-01-13T02:25:27;15.60;79.70
74368;DHT22;64991;41.090;-8.118;2023-01-13T02:30:44;15.50;79.90
74368;DHT22;64991;41.090;-8.118;2023-01-13T02:36:11;15.40;80.00
74368;DHT22;64991;41.090;-8.118;2023-01-13T02:41:34;15.30;80.80
74368;DHT22;64991;41.090;-8.118;2023-01-13T02:47:00;15.40;80.50
74368;DHT22;64991;41.090;-8.118;2023-01-13T02:52:08;15.40;80.70
74368;DHT22;64991;41.090;-8.118;2023-01-13T02:57:13;15.40;80.90
74368;DHT22;64991;41.090;-8.118;2023-01-13T03:02:21;15.40;80.70
74368;DHT22;64991;41.090;-8.118;2023-01-13T03:07:30;15.40;80.60
74368;DHT22;64991;41.090;-8.118;2023-01-13T03:12:56;15.40;80.80
74368;DHT22;64991;41.090;-8.118;2023-01-13T03:18:09;15.40;80.80
74368;DHT22;64991;41.090;-8.118;2023-01-13T03:23:20;15.40;80.10
74368;DHT22;64991;41.090;-8.118;2023-01-13T03:28:30;15.30;80.90
74368;DHT22;64991;41.090;-8.118;2023-01-13T03:33:38;15.30;81.00
74368;DHT22;64991;41.090;-8.118;2023-01-13T03:38:47;15.40;80.70
74368;DHT22;64991;41.090;-8.118;2023-01-13T03:43:57;15.30;80.80
74368;DHT22;64991;41.090;-8.118;2023-01-13T03:49:23;15.30;80.90
74368;DHT22;64991;41.090;-8.118;2023-01-13T03:54:29;15.20;80.80
74368;DHT22;64991;41.090;-8.118;2023-01-13T03:59:36;15.40;80.70
74368;DHT22;64991;41.090;-8.118;2023-01-13T04:04:44;15.20;80.80
74368;DHT22;64991;41.090;-8.118;2023-01-13T04:09:52;15.40;80.90
74368;DHT22;64991;41.090;-8.118;2023-01-13T04:14:56;15.30;80.70
74368;DHT22;64991;41.090;-8.118;2023-01-13T04:20:01;15.20;81.20
74368;DHT22;64991;41.090;-8.118;2023-01-13T04:25:05;15.20;80.90
74368;DHT22;64991;41.090;-8.118;2023-01-13T04:30:10;15.40;80.60
74368;DHT22;64991;41.090;-8.118;2023-01-13T04:35:16;15.30;80.70
74368;DHT22;64991;41.090;-8.118;2023-01-13T04:40:19;15.20;81.10
74368;DHT22;64991;41.090;-8.118;2023-01-13T04:45:22;15.20;81.20
74368;DHT22;64991;41.090;-8.118;2023-01-13T04:50:27;15.20;80.90
74368;DHT22;64991;41.090;-8.118;2023-01-13T04:55:31;15.20;80.90
74368;DHT22;64991;41.090;-8.118;2023-01-13T05:00:35;15.30;80.90
74368;DHT22;64991;41.090;-8.118;2023-01-13T05:05:40;15.20;81.40
74368;DHT22;64991;41.090;-8.118;2023-01-13T05:10:44;15.30;80.90
74368;DHT22;64991;41.090;-8.118;2023-01-13T05:15:47;15.20;80.70
74368;DHT22;64991;41.090;-8.118;2023-01-13T05:21:13;15.30;80.90
74368;DHT22;64991;41.090;-8.118;2023-01-13T05:26:30;15.20;81.00
74368;DHT22;64991;41.090;-8.118;2023-01-13T05:31:33;15.10;81.30
74368;DHT22;64991;41.090;-8.118;2023-01-13T05:36:38;15.10;81.10
74368;DHT22;64991;41.090;-8.118;2023-01-13T05:41:42;15.10;81.10
74368;DHT22;64991;41.090;-8.118;2023-01-13T05:47:05;15.10;81.10
74368;DHT22;64991;41.090;-8.118;2023-01-13T05:52:10;15.10;81.30
74368;DHT22;64991;41.090;-8.118;2023-01-13T05:57:13;15.10;81.40
74368;DHT22;64991;41.090;-8.118;2023-01-13T06:02:17;15.20;81.10
74368;DHT22;64991;41.090;-8.118;2023-01-13T06:07:22;15.20;81.20
74368;DHT22;64991;41.090;-8.118;2023-01-13T06:12:25;15.10;81.60
74368;DHT22;64991;41.090;-8.118;2023-01-13T06:17:29;15.10;81.10
74368;DHT22;64991;41.090;-8.118;2023-01-13T06:22:34;15.20;81.30
74368;DHT22;64991;41.090;-8.118;2023-01-13T06:27:40;15.10;81.20
74368;DHT22;64991;41.090;-8.118;2023-01-13T06:32:44;15.10;81.30
74368;DHT22;64991;41.090;-8.118;2023-01-13T06:37:51;15.10;81.40
74368;DHT22;64991;41.090;-8.118;2023-01-13T06:42:57;15.10;81.30
74368;DHT22;64991;41.090;-8.118;2023-01-13T06:48:19;15.10;81.30
74368;DHT22;64991;41.090;-8.118;2023-01-13T06:53:26;15.10;81.40
74368;DHT22;64991;41.090;-8.118;2023-01-13T06:58:30;15.10;81.00
74368;DHT22;64991;41.090;-8.118;2023-01-13T07:03:33;15.10;81.60
74368;DHT22;64991;41.090;-8.118;2023-01-13T07:08:38;15.10;81.30
74368;DHT22;64991;41.090;-8.118;2023-01-13T07:13:41;15.10;81.70
74368;DHT22;64991;41.090;-8.118;2023-01-13T07:19:02;15.10;81.00
74368;DHT22;64991;41.090;-8.118;2023-01-13T07:24:07;15.20;81.10
74368;DHT22;64991;41.090;-8.118;2023-01-13T07:29:10;15.20;80.90
74368;DHT22;64991;41.090;-8.118;2023-01-13T07:34:14;15.20;80.70
74368;DHT22;64991;41.090;-8.118;2023-01-13T07:39:19;15.20;80.80
74368;DHT22;64991;41.090;-8.118;2023-01-13T07:44:22;15.20;81.20
74368;DHT22;64991;41.090;-8.118;2023-01-13T07:49:26;15.20;80.60
74368;DHT22;64991;41.090;-8.118;2023-01-13T07:54:31;15.30;80.80
74368;DHT22;64991;41.090;-8.118;2023-01-13T07:59:41;15.20;81.20
74368;DHT22;64991;41.090;-8.118;2023-01-13T08:04:45;15.20;80.70
74368;DHT22;64991;41.090;-8.118;2023-01-13T08:09:50;15.20;81.10
74368;DHT22;64991;41.090;-8.118;2023-01-13T08:14:53;15.10;81.10
74368;DHT22;64991;41.090;-8.118;2023-01-13T08:19:56;15.10;80.80
74368;DHT22;64991;41.090;-8.118;2023-01-13T08:25:01;15.10;81.10
74368;DHT22;64991;41.090;-8.118;2023-01-13T08:30:06;15.20;81.00
74368;DHT22;64991;41.090;-8.118;2023-01-13T08:35:11;15.30;80.40
74368;DHT22;64991;41.090;-8.118;2023-01-13T08:45:21;15.10;80.60
74368;DHT22;64991;41.090;-8.118;2023-01-13T08:50:25;15.20;81.00
74368;DHT22;64991;41.090;-8.118;2023-01-13T08:55:30;15.20;80.70
74368;DHT22;64991;41.090;-8.118;2023-01-13T09:00:33;15.20;80.90
74368;DHT22;64991;41.090;-8.118;2023-01-13T09:05:36;15.20;80.60
74368;DHT22;64991;41.090;-8.118;2023-01-13T09:10:41;15.40;80.40
74368;DHT22;64991;41.090;-8.118;2023-01-13T09:15:45;15.20;80.40
74368;DHT22;64991;41.090;-8.118;2023-01-13T09:20:48;15.50;79.40
74368;DHT22;64991;41.090;-8.118;2023-01-13T09:25:53;15.30;80.20
74368;DHT22;64991;41.090;-8.118;2023-01-13T09:30:59;15.50;79.40
74368;DHT22;64991;41.090;-8.118;2023-01-13T09:36:03;15.50;79.20
74368;DHT22;64991;41.090;-8.118;2023-01-13T09:41:13;15.60;79.20
74368;DHT22;64991;41.090;-8.118;2023-01-13T09:46:34;15.60;78.90
74368;DHT22;64991;41.090;-8.118;2023-01-13T09:51:50;15.60;78.80
74368;DHT22;64991;41.090;-8.118;2023-01-13T09:56:56;15.60;79.20
74368;DHT22;64991;41.090;-8.118;2023-01-13T10:02:01;15.60;78.80
74368;DHT22;64991;41.090;-8.118;2023-01-13T10:07:11;15.60;78.70
74368;DHT22;64991;41.090;-8.118;2023-01-13T10:12:20;15.70;78.80
74368;DHT22;64991;41.090;-8.118;2023-01-13T10:17:43;15.70;78.80
74368;DHT22;64991;41.090;-8.118;2023-01-13T10:22:53;15.80;78.70
74368;DHT22;64991;41.090;-8.118;2023-01-13T10:28:08;15.70;78.70
74368;DHT22;64991;41.090;-8.118;2023-01-13T10:33:13;15.70;78.60
74368;DHT22;64991;41.090;-8.118;2023-01-13T10:38:19;15.80;78.60
74368;DHT22;64991;41.090;-8.118;2023-01-13T10:43:26;15.80;78.30
74368;DHT22;64991;41.090;-8.118;2023-01-13T10:48:31;15.90;78.50
74368;DHT22;64991;41.090;-8.118;2023-01-13T10:53:45;15.90;78.40
74368;DHT22;64991;41.090;-8.118;2023-01-13T10:59:05;15.90;78.30
74368;DHT22;64991;41.090;-8.118;2023-01-13T11:04:23;15.90;78.40
74368;DHT22;64991;41.090;-8.118;2023-01-13T11:09:30;15.90;78.40
74368;DHT22;64991;41.090;-8.118;2023-01-13T11:14:37;16.00;78.50
74368;DHT22;64991;41.090;-8.118;2023-01-13T11:19:45;15.90;78.30
74368;DHT22;64991;41.090;-8.118;2023-01-13T11:24:52;16.00;78.70
74368;DHT22;64991;41.090;-8.118;2023-01-13T11:29:58;16.00;78.10
74368;DHT22;64991;41.090;-8.118;2023-01-13T11:35:13;16.10;78.50
74368;DHT22;64991;41.090;-8.118;2023-01-13T11:40:20;16.00;78.30
74368;DHT22;64991;41.090;-8.118;2023-01-13T11:45:31;16.00;78.50
74368;DHT22;64991;41.090;-8.118;2023-01-13T11:50:39;16.10;78.50
74368;DHT22;64991;41.090;-8.118;2023-01-13T11:55:48;16.00;78.50
74368;DHT22;64991;41.090;-8.118;2023-01-13T12:01:03;16.20;78.40
74368;DHT22;64991;41.090;-8.118;2023-01-13T12:06:17;16.10;78.50
74368;DHT22;64991;41.090;-8.118;2023-01-13T12:11:25;16.10;78.60
74368;DHT22;64991;41.090;-8.118;2023-01-13T12:16:32;16.10;78.60
74368;DHT22;64991;41.090;-8.118;2023-01-13T12:21:37;16.10;78.50
74368;DHT22;64991;41.090;-8.118;2023-01-13T12:26:43;16.10;78.70
74368;DHT22;64991;41.090;-8.118;2023-01-13T12:31:52;16.10;78.70
74368;DHT22;64991;41.090;-8.118;2023-01-13T12:36:57;16.10;78.70
74368;DHT22;64991;41.090;-8.118;2023-01-13T12:42:08;16.20;78.90
74368;DHT22;64991;41.090;-8.118;2023-01-13T12:47:46;16.20;79.00
74368;DHT22;64991;41.090;-8.118;2023-01-13T12:52:50;16.20;78.90
74368;DHT22;64991;41.090;-8.118;2023-01-13T12:57:56;16.20;78.80
74368;DHT22;64991;41.090;-8.118;2023-01-13T13:03:28;16.20;79.00
74368;DHT22;64991;41.090;-8.118;2023-01-13T13:14:05;16.20;79.00
74368;DHT22;64991;41.090;-8.118;2023-01-13T13:30:27;16.30;79.30
74368;DHT22;64991;41.090;-8.118;2023-01-13T13:35:36;16.30;79.10
74368;DHT22;64991;41.090;-8.118;2023-01-13T13:40:45;16.30;79.30
74368;DHT22;64991;41.090;-8.118;2023-01-13T13:46:10;16.30;79.10
74368;DHT22;64991;41.090;-8.118;2023-01-13T13:51:44;16.20;79.10
74368;DHT22;64991;41.090;-8.118;2023-01-13T13:56:50;16.20;79.30
74368;DHT22;64991;41.090;-8.118;2023-01-13T14:01:55;16.20;79.50
74368;DHT22;64991;41.090;-8.118;2023-01-13T14:07:13;16.20;79.40
74368;DHT22;64991;41.090;-8.118;2023-01-13T14:12:19;16.20;79.10
74368;DHT22;64991;41.090;-8.118;2023-01-13T14:17:24;16.20;79.50
74368;DHT22;64991;41.090;-8.118;2023-01-13T14:22:30;16.20;79.30
74368;DHT22;64991;41.090;-8.118;2023-01-13T14:27:34;16.20;79.60
74368;DHT22;64991;41.090;-8.118;2023-01-13T14:32:45;16.20;79.60
74368;DHT22;64991;41.090;-8.118;2023-01-13T14:37:50;16.20;79.60
74368;DHT22;64991;41.090;-8.118;2023-01-13T14:43:07;16.20;79.40
74368;DHT22;64991;41.090;-8.118;2023-01-13T14:48:12;16.20;79.80
74368;DHT22;64991;41.090;-8.118;2023-01-13T14:58:40;16.10;79.70
74368;DHT22;64991;41.090;-8.118;2023-01-13T15:03:43;16.20;79.60
74368;DHT22;64991;41.090;-8.118;2023-01-13T15:08:48;16.20;79.70
74368;DHT22;64991;41.090;-8.118;2023-01-13T15:13:54;16.10;79.80
74368;DHT22;64991;41.090;-8.118;2023-01-13T15:18:59;16.20;79.90
74368;DHT22;64991;41.090;-8.118;2023-01-13T15:24:05;16.20;79.60
74368;DHT22;64991;41.090;-8.118;2023-01-13T15:29:09;16.10;79.80
74368;DHT22;64991;41.090;-8.118;2023-01-13T15:34:15;16.20;79.60
74368;DHT22;64991;41.090;-8.118;2023-01-13T15:39:20;16.20;79.80
74368;DHT22;64991;41.090;-8.118;2023-01-13T15:44:24;16.10;79.80
74368;DHT22;64991;41.090;-8.118;2023-01-13T15:49:45;16.10;80.20
74368;DHT22;64991;41.090;-8.118;2023-01-13T15:54:50;16.00;80.20
74368;DHT22;64991;41.090;-8.118;2023-01-13T15:59:56;16.00;80.30
74368;DHT22;64991;41.090;-8.118;2023-01-13T16:05:00;16.00;80.10
74368;DHT22;64991;41.090;-8.118;2023-01-13T16:10:07;16.00;80.20
74368;DHT22;64991;41.090;-8.118;2023-01-13T16:15:17;16.00;80.30
74368;DHT22;64991;41.090;-8.118;2023-01-13T16:20:23;16.00;80.40
74368;DHT22;64991;41.090;-8.118;2023-01-13T16:25:28;16.00;80.50
74368;DHT22;64991;41.090;-8.118;2023-01-13T16:30:32;16.00;80.50
74368;DHT22;64991;41.090;-8.118;2023-01-13T16:35:37;16.00;80.40
74368;DHT22;64991;41.090;-8.118;2023-01-13T16:41:02;16.10;80.50
74368;DHT22;64991;41.090;-8.118;2023-01-13T16:46:13;16.00;80.50
74368;DHT22;64991;41.090;-8.118;2023-01-13T16:51:20;16.00;80.40
74368;DHT22;64991;41.090;-8.118;2023-01-13T16:56:26;16.00;80.40
74368;DHT22;64991;41.090;-8.118;2023-01-13T17:01:32;16.00;80.50
74368;DHT22;64991;41.090;-8.118;2023-01-13T17:06:38;16.10;80.30
74368;DHT22;64991;41.090;-8.118;2023-01-13T17:11:45;16.00;80.60
74368;DHT22;64991;41.090;-8.118;2023-01-13T17:16:49;16.10;80.50
74368;DHT22;64991;41.090;-8.118;2023-01-13T17:21:54;16.00;80.40
74368;DHT22;64991;41.090;-8.118;2023-01-13T17:27:00;16.00;80.50
74368;DHT22;64991;41.090;-8.118;2023-01-13T17:32:04;16.00;80.60
74368;DHT22;64991;41.090;-8.118;2023-01-13T17:37:08;16.00;80.60
74368;DHT22;64991;41.090;-8.118;2023-01-13T17:42:15;16.00;80.60
74368;DHT22;64991;41.090;-8.118;2023-01-13T17:47:19;16.00;80.50
74368;DHT22;64991;41.090;-8.118;2023-01-13T17:52:23;16.00;80.60
74368;DHT22;64991;41.090;-8.118;2023-01-13T17:57:27;16.00;80.60
74368;DHT22;64991;41.090;-8.118;2023-01-13T18:02:31;15.90;80.50
74368;DHT22;64991;41.090;-8.118;2023-01-13T18:07:35;16.10;80.70
74368;DHT22;64991;41.090;-8.118;2023-01-13T18:12:39;16.10;80.80
74368;DHT22;64991;41.090;-8.118;2023-01-13T18:17:43;15.90;80.90
74368;DHT22;64991;41.090;-8.118;2023-01-13T18:22:47;16.00;80.60
74368;DHT22;64991;41.090;-8.118;2023-01-13T18:28:10;15.90;80.60
74368;DHT22;64991;41.090;-8.118;2023-01-13T18:33:13;15.90;80.70
74368;DHT22;64991;41.090;-8.118;2023-01-13T18:38:17;16.00;80.90
74368;DHT22;64991;41.090;-8.118;2023-01-13T18:43:22;16.00;80.70
74368;DHT22;64991;41.090;-8.118;2023-01-13T18:48:26;16.00;80.60
74368;DHT22;64991;41.090;-8.118;2023-01-13T18:53:29;16.00;80.50
74368;DHT22;64991;41.090;-8.118;2023-01-13T18:58:34;15.90;80.80
74368;DHT22;64991;41.090;-8.118;2023-01-13T19:03:38;15.90;80.60
74368;DHT22;64991;41.090;-8.118;2023-01-13T19:08:41;15.90;80.80
74368;DHT22;64991;41.090;-8.118;2023-01-13T19:13:46;16.00;80.60
74368;DHT22;64991;41.090;-8.118;2023-01-13T19:18:50;16.10;80.70
74368;DHT22;64991;41.090;-8.118;2023-01-13T19:23:53;16.00;80.70
74368;DHT22;64991;41.090;-8.118;2023-01-13T19:28:58;16.00;80.60
74368;DHT22;64991;41.090;-8.118;2023-01-13T19:34:02;16.00;81.00
74368;DHT22;64991;41.090;-8.118;2023-01-13T19:39:05;16.00;80.80
74368;DHT22;64991;41.090;-8.118;2023-01-13T19:44:12;16.00;80.70
74368;DHT22;64991;41.090;-8.118;2023-01-13T19:49:38;15.90;80.90
74368;DHT22;64991;41.090;-8.118;2023-01-13T19:54:43;16.00;80.80
74368;DHT22;64991;41.090;-8.118;2023-01-13T19:59:48;16.00;80.90
74368;DHT22;64991;41.090;-8.118;2023-01-13T20:04:51;15.90;80.80
74368;DHT22;64991;41.090;-8.118;2023-01-13T20:09:56;16.00;80.90
74368;DHT22;64991;41.090;-8.118;2023-01-13T20:15:01;16.00;80.50
74368;DHT22;64991;41.090;-8.118;2023-01-13T20:20:06;16.00;80.70
74368;DHT22;64991;41.090;-8.118;2023-01-13T20:25:10;16.00;80.70
74368;DHT22;64991;41.090;-8.118;2023-01-13T20:30:19;16.00;80.90
74368;DHT22;64991;41.090;-8.118;2023-01-13T20:35:23;15.90;80.80
74368;DHT22;64991;41.090;-8.118;2023-01-13T20:40:30;16.00;81.00
74368;DHT22;64991;41.090;-8.118;2023-01-13T20:45:35;15.90;81.00
74368;DHT22;64991;41.090;-8.118;2023-01-13T20:50:41;16.00;81.10
74368;DHT22;64991;41.090;-8.118;2023-01-13T20:55:44;15.90;80.70
74368;DHT22;64991;41.090;-8.118;2023-01-13T21:00:49;16.00;80.80
74368;DHT22;64991;41.090;-8.118;2023-01-13T21:05:53;15.90;80.80
74368;DHT22;64991;41.090;-8.118;2023-01-13T21:10:59;15.90;80.90
74368;DHT22;64991;41.090;-8.118;2023-01-13T21:16:07;16.00;80.80
74368;DHT22;64991;41.090;-8.118;2023-01-13T21:21:11;15.90;80.70
74368;DHT22;64991;41.090;-8.118;2023-01-13T21:26:15;15.90;80.60
74368;DHT22;64991;41.090;-8.118;2023-01-13T21:31:21;16.00;80.80
74368;DHT22;64991;41.090;-8.118;2023-01-13T21:36:27;16.00;81.10
74368;DHT22;64991;41.090;-8.118;2023-01-13T21:41:30;16.00;80.80
74368;DHT22;64991;41.090;-8.118;2023-01-13T21:46:53;16.00;80.90
74368;DHT22;64991;41.090;-8.118;2023-01-13T21:52:15;16.00;80.70
74368;DHT22;64991;41.090;-8.118;2023-01-13T21:57:18;16.00;80.80
74368;DHT22;64991;41.090;-8.118;2023-01-13T22:02:23;15.90;80.80
74368;DHT22;64991;41.090;-8.118;2023-01-13T22:07:34;15.90;80.80
74368;DHT22;64991;41.090;-8.118;2023-01-13T22:12:38;15.90;80.90
74368;DHT22;64991;41.090;-8.118;2023-01-13T22:17:43;15.90;80.80
74368;DHT22;64991;41.090;-8.118;2023-01-13T22:22:49;15.90;80.60
74368;DHT22;64991;41.090;-8.118;2023-01-13T22:27:52;15.90;80.80
74368;DHT22;64991;41.090;-8.118;2023-01-13T22:33:05;16.00;80.60
74368;DHT22;64991;41.090;-8.118;2023-01-13T22:38:09;16.00;80.90
74368;DHT22;64991;41.090;-8.118;2023-01-13T22:43:13;15.90;80.90
74368;DHT22;64991;41.090;-8.118;2023-01-13T22:48:18;15.90;80.70
74368;DHT22;64991;41.090;-8.118;2023-01-13T22:53:22;15.90;80.70
74368;DHT22;64991;41.090;-8.118;2023-01-13T22:58:25;15.90;80.60
74368;DHT22;64991;41.090;-8.118;2023-01-13T23:03:31;16.00;80.50
74368;DHT22;64991;41.090;-8.118;2023-01-13T23:08:34;15.90;80.50
74368;DHT22;64991;41.090;-8.118;2023-01-13T23:13:38;15.90;80.50
74368;DHT22;64991;41.090;-8.118;2023-01-13T23:18:45;16.00;80.70
74368;DHT22;64991;41.090;-8.118;2023-01-13T23:23:49;15.90;80.60
74368;DHT22;64991;41.090;-8.118;2023-01-13T23:28:56;16.00;80.50
74368;DHT22;64991;41.090;-8.118;2023-01-13T23:34:02;16.00;80.40
74368;DHT22;64991;41.090;-8.118;2023-01-13T23:39:05;15.90;80.70
74368;DHT22;64991;41.090;-8.118;2023-01-13T23:44:09;15.90;80.60
74368;DHT22;64991;41.090;-8.118;2023-01-13T23:49:14;15.90;80.70
74368;DHT22;64991;41.090;-8.118;2023-01-13T23:54:17;15.90;80.80
74368;DHT22;64991;41.090;-8.118;2023-01-13T23:59:21;15.90;80.50
